sensor_id;sensor_type;location;lat;lon;timestamp;temperature;humidity
10042;DHT22;5061;49.068;12.058;2022-07-17T00:00:04;17.30;52.10
10042;DHT22;5061;49.068;12.058;2022-07-17T00:03:25;17.20;52.20
10042;DHT22;5061;49.068;12.058;2022-07-17T00:06:45;17.20;52.20
10042;DHT22;5061;49.068;12.058;2022-07-17T00:10:06;17.20;52.50
10042;DHT22;5061;49.068;12.058;2022-07-17T00:13:27;17.10;52.50
10042;DHT22;5061;49.068;12.058;2022-07-17T00:16:48;17.00;52.80
10042;DHT22;5061;49.068;12.058;2022-07-17T00:20:09;17.00;53.50
10042;DHT22;5061;49.068;12.058;2022-07-17T00:23:30;17.00;53.00
10042;DHT22;5061;49.068;12.058;2022-07-17T00:26:51;17.00;53.20
10042;DHT22;5061;49.068;12.058;2022-07-17T00:30:12;16.90;53.20
10042;DHT22;5061;49.068;12.058;2022-07-17T00:33:33;16.90;53.30
10042;DHT22;5061;49.068;12.058;2022-07-17T00:36:54;16.90;53.40
10042;DHT22;5061;49.068;12.058;2022-07-17T00:40:19;16.90;53.50
10042;DHT22;5061;49.068;12.058;2022-07-17T00:43:40;16.80;53.50
10042;DHT22;5061;49.068;12.058;2022-07-17T00:47:01;16.80;53.70
10042;DHT22;5061;49.068;12.058;2022-07-17T00:50:22;16.80;53.80
10042;DHT22;5061;49.068;12.058;2022-07-17T00:53:44;16.80;53.80
10042;DHT22;5061;49.068;12.058;2022-07-17T00:57:07;16.70;53.90
10042;DHT22;5061;49.068;12.058;2022-07-17T01:00:28;16.70;54.10
10042;DHT22;5061;49.068;12.058;2022-07-17T01:03:48;16.60;54.70
10042;DHT22;5061;49.068;12.058;2022-07-17T01:07:09;16.50;54.20
10042;DHT22;5061;49.068;12.058;2022-07-17T01:10:30;16.50;54.40
10042;DHT22;5061;49.068;12.058;2022-07-17T01:13:51;16.40;54.50
10042;DHT22;5061;49.068;12.058;2022-07-17T01:17:12;16.30;54.60
10042;DHT22;5061;49.068;12.058;2022-07-17T01:20:33;16.30;54.60
10042;DHT22;5061;49.068;12.058;2022-07-17T01:23:54;16.30;54.70
10042;DHT22;5061;49.068;12.058;2022-07-17T01:27:15;16.20;54.80
10042;DHT22;5061;49.068;12.058;2022-07-17T01:30:36;16.20;55.00
10042;DHT22;5061;49.068;12.058;2022-07-17T01:33:58;16.10;54.90
10042;DHT22;5061;49.068;12.058;2022-07-17T01:37:19;16.00;55.50
10042;DHT22;5061;49.068;12.058;2022-07-17T01:40:39;16.00;55.00
10042;DHT22;5061;49.068;12.058;2022-07-17T01:44:00;15.90;55.10
10042;DHT22;5061;49.068;12.058;2022-07-17T01:47:21;15.90;55.30
10042;DHT22;5061;49.068;12.058;2022-07-17T01:50:42;15.90;55.40
10042;DHT22;5061;49.068;12.058;2022-07-17T01:54:02;15.80;55.20
10042;DHT22;5061;49.068;12.058;2022-07-17T01:57:23;15.80;55.30
10042;DHT22;5061;49.068;12.058;2022-07-17T02:00:44;15.80;55.40
10042;DHT22;5061;49.068;12.058;2022-07-17T02:04:04;15.70;55.50
10042;DHT22;5061;49.068;12.058;2022-07-17T02:07:25;15.70;55.60
10042;DHT22;5061;49.068;12.058;2022-07-17T02:10:46;15.60;55.50
10042;DHT22;5061;49.068;12.058;2022-07-17T02:14:06;15.50;55.50
10042;DHT22;5061;49.068;12.058;2022-07-17T02:17:27;15.50;55.60
10042;DHT22;5061;49.068;12.058;2022-07-17T02:20:47;15.50;55.80
10042;DHT22;5061;49.068;12.058;2022-07-17T02:24:10;15.40;55.80
10042;DHT22;5061;49.068;12.058;2022-07-17T02:27:34;15.40;55.90
10042;DHT22;5061;49.068;12.058;2022-07-17T02:30:54;15.40;55.90
10042;DHT22;5061;49.068;12.058;2022-07-17T02:34:15;15.30;56.00
10042;DHT22;5061;49.068;12.058;2022-07-17T02:37:37;15.30;56.00
10042;DHT22;5061;49.068;12.058;2022-07-17T02:40:57;15.20;56.00
10042;DHT22;5061;49.068;12.058;2022-07-17T02:44:18;15.20;56.00
10042;DHT22;5061;49.068;12.058;2022-07-17T02:47:39;15.10;56.00
10042;DHT22;5061;49.068;12.058;2022-07-17T02:50:59;15.10;56.20
10042;DHT22;5061;49.068;12.058;2022-07-17T02:54:20;15.00;56.20
10042;DHT22;5061;49.068;12.058;2022-07-17T02:57:40;15.00;56.30
10042;DHT22;5061;49.068;12.058;2022-07-17T03:01:01;14.90;56.30
10042;DHT22;5061;49.068;12.058;2022-07-17T03:04:22;14.90;56.40
10042;DHT22;5061;49.068;12.058;2022-07-17T03:07:43;14.80;56.50
10042;DHT22;5061;49.068;12.058;2022-07-17T03:11:06;14.80;56.50
10042;DHT22;5061;49.068;12.058;2022-07-17T03:14:27;14.80;56.60
10042;DHT22;5061;49.068;12.058;2022-07-17T03:17:48;14.70;56.60
10042;DHT22;5061;49.068;12.058;2022-07-17T03:21:08;14.70;56.90
10042;DHT22;5061;49.068;12.058;2022-07-17T03:24:29;14.60;56.80
10042;DHT22;5061;49.068;12.058;2022-07-17T03:27:50;14.60;56.90
10042;DHT22;5061;49.068;12.058;2022-07-17T03:31:11;14.60;57.00
10042;DHT22;5061;49.068;12.058;2022-07-17T03:34:33;14.50;57.10
10042;DHT22;5061;49.068;12.058;2022-07-17T03:37:53;14.50;57.20
10042;DHT22;5061;49.068;12.058;2022-07-17T03:41:14;14.40;57.10
10042;DHT22;5061;49.068;12.058;2022-07-17T03:44:35;14.40;57.20
10042;DHT22;5061;49.068;12.058;2022-07-17T03:47:55;14.40;57.40
10042;DHT22;5061;49.068;12.058;2022-07-17T03:51:16;14.30;57.40
10042;DHT22;5061;49.068;12.058;2022-07-17T03:54:38;14.20;57.30
10042;DHT22;5061;49.068;12.058;2022-07-17T03:57:59;14.30;57.60
10042;DHT22;5061;49.068;12.058;2022-07-17T04:01:20;14.20;57.50
10042;DHT22;5061;49.068;12.058;2022-07-17T04:04:41;14.20;57.60
10042;DHT22;5061;49.068;12.058;2022-07-17T04:08:01;14.20;57.80
10042;DHT22;5061;49.068;12.058;2022-07-17T04:11:22;14.20;57.80
10042;DHT22;5061;49.068;12.058;2022-07-17T04:14:42;14.20;57.90
10042;DHT22;5061;49.068;12.058;2022-07-17T04:18:05;14.20;58.10
10042;DHT22;5061;49.068;12.058;2022-07-17T04:21:25;14.10;58.00
10042;DHT22;5061;49.068;12.058;2022-07-17T04:24:46;14.20;58.10
10042;DHT22;5061;49.068;12.058;2022-07-17T04:28:08;14.20;58.10
10042;DHT22;5061;49.068;12.058;2022-07-17T04:31:30;14.20;58.20
10042;DHT22;5061;49.068;12.058;2022-07-17T04:34:50;14.20;58.30
10042;DHT22;5061;49.068;12.058;2022-07-17T04:38:11;14.20;58.40
10042;DHT22;5061;49.068;12.058;2022-07-17T04:41:32;14.20;58.60
10042;DHT22;5061;49.068;12.058;2022-07-17T04:44:52;14.30;58.70
10042;DHT22;5061;49.068;12.058;2022-07-17T04:48:13;14.40;58.80
10042;DHT22;5061;49.068;12.058;2022-07-17T04:51:34;14.50;58.80
10042;DHT22;5061;49.068;12.058;2022-07-17T04:54:54;14.50;59.30
10042;DHT22;5061;49.068;12.058;2022-07-17T04:58:15;14.60;58.80
10042;DHT22;5061;49.068;12.058;2022-07-17T05:01:35;14.70;58.80
10042;DHT22;5061;49.068;12.058;2022-07-17T05:04:56;14.80;58.90
10042;DHT22;5061;49.068;12.058;2022-07-17T05:08:16;14.90;58.70
10042;DHT22;5061;49.068;12.058;2022-07-17T05:11:39;14.90;58.80
10042;DHT22;5061;49.068;12.058;2022-07-17T05:14:59;15.00;58.90
10042;DHT22;5061;49.068;12.058;2022-07-17T05:18:20;15.10;58.80
10042;DHT22;5061;49.068;12.058;2022-07-17T05:21:40;15.20;58.80
10042;DHT22;5061;49.068;12.058;2022-07-17T05:25:01;15.30;58.70
10042;DHT22;5061;49.068;12.058;2022-07-17T05:28:21;15.40;58.70
10042;DHT22;5061;49.068;12.058;2022-07-17T05:31:42;15.40;58.70
10042;DHT22;5061;49.068;12.058;2022-07-17T05:35:03;15.60;58.80
10042;DHT22;5061;49.068;12.058;2022-07-17T05:38:24;15.60;58.60
10042;DHT22;5061;49.068;12.058;2022-07-17T05:41:45;15.70;58.60
10042;DHT22;5061;49.068;12.058;2022-07-17T05:45:06;15.80;58.50
10042;DHT22;5061;49.068;12.058;2022-07-17T05:48:30;15.90;58.60
10042;DHT22;5061;49.068;12.058;2022-07-17T05:51:51;16.00;58.60
10042;DHT22;5061;49.068;12.058;2022-07-17T05:55:11;16.10;58.60
10042;DHT22;5061;49.068;12.058;2022-07-17T05:58:32;16.20;58.70
10042;DHT22;5061;49.068;12.058;2022-07-17T06:01:53;16.30;58.60
10042;DHT22;5061;49.068;12.058;2022-07-17T06:05:13;16.40;58.50
10042;DHT22;5061;49.068;12.058;2022-07-17T06:08:34;16.40;58.50
10042;DHT22;5061;49.068;12.058;2022-07-17T06:11:54;16.50;58.60
10042;DHT22;5061;49.068;12.058;2022-07-17T06:15:15;16.50;58.50
10042;DHT22;5061;49.068;12.058;2022-07-17T06:18:36;16.60;58.60
10042;DHT22;5061;49.068;12.058;2022-07-17T06:21:57;16.70;58.80
10042;DHT22;5061;49.068;12.058;2022-07-17T06:25:17;16.80;58.70
10042;DHT22;5061;49.068;12.058;2022-07-17T06:28:38;16.80;58.60
10042;DHT22;5061;49.068;12.058;2022-07-17T06:31:59;16.80;58.60
10042;DHT22;5061;49.068;12.058;2022-07-17T06:35:19;16.90;58.60
10042;DHT22;5061;49.068;12.058;2022-07-17T06:38:40;16.80;58.50
10042;DHT22;5061;49.068;12.058;2022-07-17T06:42:01;16.90;58.60
10042;DHT22;5061;49.068;12.058;2022-07-17T06:45:22;16.90;58.50
10042;DHT22;5061;49.068;12.058;2022-07-17T06:48:42;16.90;58.40
10042;DHT22;5061;49.068;12.058;2022-07-17T06:52:03;17.00;58.50
10042;DHT22;5061;49.068;12.058;2022-07-17T06:55:24;17.00;58.30
10042;DHT22;5061;49.068;12.058;2022-07-17T06:58:44;17.00;58.30
10042;DHT22;5061;49.068;12.058;2022-07-17T07:02:05;17.10;58.30
10042;DHT22;5061;49.068;12.058;2022-07-17T07:05:26;17.20;58.30
10042;DHT22;5061;49.068;12.058;2022-07-17T07:08:46;17.20;58.10
10042;DHT22;5061;49.068;12.058;2022-07-17T07:12:07;17.30;58.30
10042;DHT22;5061;49.068;12.058;2022-07-17T07:15:28;17.30;58.20
10042;DHT22;5061;49.068;12.058;2022-07-17T07:18:48;17.30;58.10
10042;DHT22;5061;49.068;12.058;2022-07-17T07:22:09;17.40;58.20
10042;DHT22;5061;49.068;12.058;2022-07-17T07:25:31;17.40;58.20
10042;DHT22;5061;49.068;12.058;2022-07-17T07:28:52;17.50;58.30
10042;DHT22;5061;49.068;12.058;2022-07-17T07:32:13;17.60;58.30
10042;DHT22;5061;49.068;12.058;2022-07-17T07:35:34;17.60;58.20
10042;DHT22;5061;49.068;12.058;2022-07-17T07:38:54;17.70;58.30
10042;DHT22;5061;49.068;12.058;2022-07-17T07:42:17;17.80;58.30
10042;DHT22;5061;49.068;12.058;2022-07-17T07:45:38;17.90;58.20
10042;DHT22;5061;49.068;12.058;2022-07-17T07:48:59;18.00;58.20
10042;DHT22;5061;49.068;12.058;2022-07-17T07:52:20;18.20;58.20
10042;DHT22;5061;49.068;12.058;2022-07-17T07:55:41;18.30;58.20
10042;DHT22;5061;49.068;12.058;2022-07-17T07:59:02;18.40;58.20
10042;DHT22;5061;49.068;12.058;2022-07-17T08:02:23;18.50;58.20
10042;DHT22;5061;49.068;12.058;2022-07-17T08:05:44;18.60;58.20
10042;DHT22;5061;49.068;12.058;2022-07-17T08:09:10;18.70;58.30
10042;DHT22;5061;49.068;12.058;2022-07-17T08:12:32;18.80;58.30
10042;DHT22;5061;49.068;12.058;2022-07-17T08:15:52;18.90;58.40
10042;DHT22;5061;49.068;12.058;2022-07-17T08:19:13;19.00;58.40
10042;DHT22;5061;49.068;12.058;2022-07-17T08:22:34;19.10;58.20
10042;DHT22;5061;49.068;12.058;2022-07-17T08:25:54;19.20;58.30
10042;DHT22;5061;49.068;12.058;2022-07-17T08:29:15;19.30;57.80
10042;DHT22;5061;49.068;12.058;2022-07-17T08:32:36;19.40;57.90
10042;DHT22;5061;49.068;12.058;2022-07-17T08:35:57;19.40;57.90
10042;DHT22;5061;49.068;12.058;2022-07-17T08:39:18;19.60;57.90
10042;DHT22;5061;49.068;12.058;2022-07-17T08:42:39;19.70;57.60
10042;DHT22;5061;49.068;12.058;2022-07-17T08:46:03;19.80;57.50
10042;DHT22;5061;49.068;12.058;2022-07-17T08:49:24;20.00;57.40
10042;DHT22;5061;49.068;12.058;2022-07-17T08:52:45;20.10;57.30
10042;DHT22;5061;49.068;12.058;2022-07-17T08:56:06;20.30;57.20
10042;DHT22;5061;49.068;12.058;2022-07-17T08:59:26;20.50;57.10
10042;DHT22;5061;49.068;12.058;2022-07-17T09:03:03;20.60;57.00
10042;DHT22;5061;49.068;12.058;2022-07-17T09:06:24;20.80;57.00
10042;DHT22;5061;49.068;12.058;2022-07-17T09:09:51;20.90;56.50
10042;DHT22;5061;49.068;12.058;2022-07-17T09:13:21;21.00;56.30
10042;DHT22;5061;49.068;12.058;2022-07-17T09:16:53;21.10;56.20
10042;DHT22;5061;49.068;12.058;2022-07-17T09:20:15;21.40;56.00
10042;DHT22;5061;49.068;12.058;2022-07-17T09:23:37;21.60;55.60
10042;DHT22;5061;49.068;12.058;2022-07-17T09:26:57;21.80;55.40
10042;DHT22;5061;49.068;12.058;2022-07-17T09:30:18;21.90;54.90
10042;DHT22;5061;49.068;12.058;2022-07-17T09:33:39;22.10;54.70
10042;DHT22;5061;49.068;12.058;2022-07-17T09:37:02;22.30;54.70
10042;DHT22;5061;49.068;12.058;2022-07-17T09:40:24;22.40;54.30
10042;DHT22;5061;49.068;12.058;2022-07-17T09:44:03;22.60;54.20
10042;DHT22;5061;49.068;12.058;2022-07-17T09:47:25;22.80;53.90
10042;DHT22;5061;49.068;12.058;2022-07-17T09:50:49;23.00;53.70
10042;DHT22;5061;49.068;12.058;2022-07-17T09:54:10;23.10;53.40
10042;DHT22;5061;49.068;12.058;2022-07-17T09:57:34;23.20;53.00
10042;DHT22;5061;49.068;12.058;2022-07-17T10:00:56;23.40;52.90
10042;DHT22;5061;49.068;12.058;2022-07-17T10:04:16;23.70;52.80
10042;DHT22;5061;49.068;12.058;2022-07-17T10:07:41;23.80;52.50
10042;DHT22;5061;49.068;12.058;2022-07-17T10:11:10;23.90;51.90
10042;DHT22;5061;49.068;12.058;2022-07-17T10:14:31;24.10;51.80
10042;DHT22;5061;49.068;12.058;2022-07-17T10:18:05;24.20;51.00
10042;DHT22;5061;49.068;12.058;2022-07-17T10:21:28;24.30;51.40
10042;DHT22;5061;49.068;12.058;2022-07-17T10:24:53;24.40;51.00
10042;DHT22;5061;49.068;12.058;2022-07-17T10:28:24;24.50;50.60
10042;DHT22;5061;49.068;12.058;2022-07-17T10:31:50;24.60;50.40
10042;DHT22;5061;49.068;12.058;2022-07-17T10:35:11;24.70;50.10
10042;DHT22;5061;49.068;12.058;2022-07-17T10:38:41;24.80;50.10
10042;DHT22;5061;49.068;12.058;2022-07-17T10:42:02;24.90;50.00
10042;DHT22;5061;49.068;12.058;2022-07-17T10:45:34;25.00;49.80
10042;DHT22;5061;49.068;12.058;2022-07-17T10:48:55;25.20;49.60
10042;DHT22;5061;49.068;12.058;2022-07-17T10:52:17;25.40;49.60
10042;DHT22;5061;49.068;12.058;2022-07-17T10:55:40;25.60;49.10
10042;DHT22;5061;49.068;12.058;2022-07-17T10:59:02;25.70;48.80
10042;DHT22;5061;49.068;12.058;2022-07-17T11:02:29;25.80;48.10
10042;DHT22;5061;49.068;12.058;2022-07-17T11:05:50;25.80;47.60
10042;DHT22;5061;49.068;12.058;2022-07-17T11:09:12;25.90;47.60
10042;DHT22;5061;49.068;12.058;2022-07-17T11:12:33;26.10;47.70
10042;DHT22;5061;49.068;12.058;2022-07-17T11:15:54;26.30;47.40
10042;DHT22;5061;49.068;12.058;2022-07-17T11:22:56;26.50;46.80
10042;DHT22;5061;49.068;12.058;2022-07-17T11:26:18;26.50;46.00
10042;DHT22;5061;49.068;12.058;2022-07-17T11:29:40;26.40;45.40
10042;DHT22;5061;49.068;12.058;2022-07-17T11:33:01;26.30;45.40
10042;DHT22;5061;49.068;12.058;2022-07-17T11:36:26;26.20;45.30
10042;DHT22;5061;49.068;12.058;2022-07-17T11:39:49;26.40;45.60
10042;DHT22;5061;49.068;12.058;2022-07-17T11:43:10;26.60;45.30
10042;DHT22;5061;49.068;12.058;2022-07-17T11:46:32;26.80;45.00
10042;DHT22;5061;49.068;12.058;2022-07-17T11:50:12;26.80;44.10
10042;DHT22;5061;49.068;12.058;2022-07-17T11:53:38;26.70;43.90
10042;DHT22;5061;49.068;12.058;2022-07-17T11:56:59;26.70;43.90
10042;DHT22;5061;49.068;12.058;2022-07-17T12:00:22;26.80;43.70
10042;DHT22;5061;49.068;12.058;2022-07-17T12:03:43;27.10;43.70
10042;DHT22;5061;49.068;12.058;2022-07-17T12:07:04;27.30;43.20
10042;DHT22;5061;49.068;12.058;2022-07-17T12:10:27;27.40;42.20
10042;DHT22;5061;49.068;12.058;2022-07-17T12:13:49;27.40;42.30
10042;DHT22;5061;49.068;12.058;2022-07-17T12:17:11;27.60;42.40
10042;DHT22;5061;49.068;12.058;2022-07-17T12:20:46;27.70;40.80
10042;DHT22;5061;49.068;12.058;2022-07-17T12:24:07;27.60;41.40
10042;DHT22;5061;49.068;12.058;2022-07-17T12:27:27;27.80;41.40
10042;DHT22;5061;49.068;12.058;2022-07-17T12:30:48;28.00;41.50
10042;DHT22;5061;49.068;12.058;2022-07-17T12:34:08;28.20;41.60
10042;DHT22;5061;49.068;12.058;2022-07-17T12:37:29;28.40;41.20
10042;DHT22;5061;49.068;12.058;2022-07-17T12:40:50;28.50;40.80
10042;DHT22;5061;49.068;12.058;2022-07-17T12:44:10;28.60;40.70
10042;DHT22;5061;49.068;12.058;2022-07-17T12:47:31;28.80;41.00
10042;DHT22;5061;49.068;12.058;2022-07-17T12:50:53;29.00;40.70
10042;DHT22;5061;49.068;12.058;2022-07-17T12:54:13;29.30;40.40
10042;DHT22;5061;49.068;12.058;2022-07-17T12:57:34;29.50;39.90
10042;DHT22;5061;49.068;12.058;2022-07-17T13:00:55;29.50;39.60
10042;DHT22;5061;49.068;12.058;2022-07-17T13:04:16;29.60;39.20
10042;DHT22;5061;49.068;12.058;2022-07-17T13:07:36;29.80;39.30
10042;DHT22;5061;49.068;12.058;2022-07-17T13:10:59;29.90;39.00
10042;DHT22;5061;49.068;12.058;2022-07-17T13:14:20;30.10;38.80
10042;DHT22;5061;49.068;12.058;2022-07-17T13:17:41;30.20;38.50
10042;DHT22;5061;49.068;12.058;2022-07-17T13:21:03;30.20;38.40
10042;DHT22;5061;49.068;12.058;2022-07-17T13:24:23;30.30;37.90
10042;DHT22;5061;49.068;12.058;2022-07-17T13:27:45;30.40;37.80
10042;DHT22;5061;49.068;12.058;2022-07-17T13:31:06;30.60;37.70
10042;DHT22;5061;49.068;12.058;2022-07-17T13:34:27;30.60;37.20
10042;DHT22;5061;49.068;12.058;2022-07-17T13:37:48;30.70;37.20
10042;DHT22;5061;49.068;12.058;2022-07-17T13:41:09;30.80;36.80
10042;DHT22;5061;49.068;12.058;2022-07-17T13:44:29;31.00;36.90
10042;DHT22;5061;49.068;12.058;2022-07-17T13:47:50;31.00;36.30
10042;DHT22;5061;49.068;12.058;2022-07-17T13:51:13;31.10;36.30
10042;DHT22;5061;49.068;12.058;2022-07-17T13:54:34;31.20;36.40
10042;DHT22;5061;49.068;12.058;2022-07-17T13:57:55;31.40;36.20
10042;DHT22;5061;49.068;12.058;2022-07-17T14:01:18;31.60;35.90
10042;DHT22;5061;49.068;12.058;2022-07-17T14:04:38;31.70;35.30
10042;DHT22;5061;49.068;12.058;2022-07-17T14:08:02;31.80;35.10
10042;DHT22;5061;49.068;12.058;2022-07-17T14:11:26;32.00;34.90
10042;DHT22;5061;49.068;12.058;2022-07-17T14:14:46;32.20;34.40
10042;DHT22;5061;49.068;12.058;2022-07-17T14:18:11;32.20;34.00
10042;DHT22;5061;49.068;12.058;2022-07-17T14:21:34;32.10;33.10
10042;DHT22;5061;49.068;12.058;2022-07-17T14:24:55;32.10;33.30
10042;DHT22;5061;49.068;12.058;2022-07-17T14:28:22;32.10;33.30
10042;DHT22;5061;49.068;12.058;2022-07-17T14:31:43;32.10;33.10
10042;DHT22;5061;49.068;12.058;2022-07-17T14:35:07;32.10;33.10
10042;DHT22;5061;49.068;12.058;2022-07-17T14:38:28;32.10;32.90
10042;DHT22;5061;49.068;12.058;2022-07-17T14:41:49;32.10;32.70
10042;DHT22;5061;49.068;12.058;2022-07-17T14:45:10;32.10;31.90
10042;DHT22;5061;49.068;12.058;2022-07-17T14:48:33;32.00;32.30
10042;DHT22;5061;49.068;12.058;2022-07-17T14:51:53;32.00;32.10
10042;DHT22;5061;49.068;12.058;2022-07-17T14:55:14;32.00;32.20
10042;DHT22;5061;49.068;12.058;2022-07-17T14:58:35;31.90;32.30
10042;DHT22;5061;49.068;12.058;2022-07-17T15:01:56;31.90;32.20
10042;DHT22;5061;49.068;12.058;2022-07-17T15:05:17;31.80;32.10
10042;DHT22;5061;49.068;12.058;2022-07-17T15:08:37;31.80;32.00
10042;DHT22;5061;49.068;12.058;2022-07-17T15:11:58;31.80;31.90
10042;DHT22;5061;49.068;12.058;2022-07-17T15:15:19;31.80;31.00
10042;DHT22;5061;49.068;12.058;2022-07-17T15:18:40;31.80;30.80
10042;DHT22;5061;49.068;12.058;2022-07-17T15:22:02;31.70;30.70
10042;DHT22;5061;49.068;12.058;2022-07-17T15:25:22;31.60;30.90
10042;DHT22;5061;49.068;12.058;2022-07-17T15:28:43;31.60;30.80
10042;DHT22;5061;49.068;12.058;2022-07-17T15:32:04;31.50;30.90
10042;DHT22;5061;49.068;12.058;2022-07-17T15:35:25;31.50;31.00
10042;DHT22;5061;49.068;12.058;2022-07-17T15:38:49;31.50;30.90
10042;DHT22;5061;49.068;12.058;2022-07-17T15:42:12;31.40;30.90
10042;DHT22;5061;49.068;12.058;2022-07-17T15:45:33;31.30;31.50
10042;DHT22;5061;49.068;12.058;2022-07-17T15:48:54;31.30;30.70
10042;DHT22;5061;49.068;12.058;2022-07-17T15:52:14;31.20;30.40
10042;DHT22;5061;49.068;12.058;2022-07-17T15:55:35;31.00;30.50
10042;DHT22;5061;49.068;12.058;2022-07-17T15:58:56;30.90;30.60
10042;DHT22;5061;49.068;12.058;2022-07-17T16:02:16;30.90;30.70
10042;DHT22;5061;49.068;12.058;2022-07-17T16:05:37;30.80;30.40
10042;DHT22;5061;49.068;12.058;2022-07-17T16:09:00;30.70;30.40
10042;DHT22;5061;49.068;12.058;2022-07-17T16:12:21;30.60;30.30
10042;DHT22;5061;49.068;12.058;2022-07-17T16:15:42;30.50;30.20
10042;DHT22;5061;49.068;12.058;2022-07-17T16:19:03;30.40;30.00
10042;DHT22;5061;49.068;12.058;2022-07-17T16:22:24;30.20;29.60
10042;DHT22;5061;49.068;12.058;2022-07-17T16:25:45;30.10;29.60
10042;DHT22;5061;49.068;12.058;2022-07-17T16:29:05;29.90;29.50
10042;DHT22;5061;49.068;12.058;2022-07-17T16:32:26;29.70;29.30
10042;DHT22;5061;49.068;12.058;2022-07-17T16:35:47;29.60;29.20
10042;DHT22;5061;49.068;12.058;2022-07-17T16:39:08;29.50;29.60
10042;DHT22;5061;49.068;12.058;2022-07-17T16:42:29;29.40;29.30
10042;DHT22;5061;49.068;12.058;2022-07-17T16:45:50;29.30;29.20
10042;DHT22;5061;49.068;12.058;2022-07-17T16:49:11;29.20;29.10
10042;DHT22;5061;49.068;12.058;2022-07-17T16:52:31;29.10;29.20
10042;DHT22;5061;49.068;12.058;2022-07-17T16:55:53;29.00;28.80
10042;DHT22;5061;49.068;12.058;2022-07-17T16:59:15;28.80;28.50
10042;DHT22;5061;49.068;12.058;2022-07-17T17:02:36;28.60;28.70
10042;DHT22;5061;49.068;12.058;2022-07-17T17:05:57;28.50;28.80
10042;DHT22;5061;49.068;12.058;2022-07-17T17:09:17;28.30;28.60
10042;DHT22;5061;49.068;12.058;2022-07-17T17:12:38;28.20;28.70
10042;DHT22;5061;49.068;12.058;2022-07-17T17:16:01;28.10;28.80
10042;DHT22;5061;49.068;12.058;2022-07-17T17:19:22;28.00;28.90
10042;DHT22;5061;49.068;12.058;2022-07-17T17:22:42;28.00;29.00
10042;DHT22;5061;49.068;12.058;2022-07-17T17:26:04;27.90;28.90
10042;DHT22;5061;49.068;12.058;2022-07-17T17:29:24;27.70;28.70
10042;DHT22;5061;49.068;12.058;2022-07-17T17:32:45;27.70;28.90
10042;DHT22;5061;49.068;12.058;2022-07-17T17:36:06;27.60;29.00
10042;DHT22;5061;49.068;12.058;2022-07-17T17:39:26;27.50;28.90
10042;DHT22;5061;49.068;12.058;2022-07-17T17:42:47;27.40;28.90
10042;DHT22;5061;49.068;12.058;2022-07-17T17:46:10;27.30;28.90
10042;DHT22;5061;49.068;12.058;2022-07-17T17:49:31;27.20;29.00
10042;DHT22;5061;49.068;12.058;2022-07-17T17:52:52;27.00;28.90
10042;DHT22;5061;49.068;12.058;2022-07-17T17:56:12;26.90;29.10
10042;DHT22;5061;49.068;12.058;2022-07-17T17:59:33;26.80;29.20
10042;DHT22;5061;49.068;12.058;2022-07-17T18:02:54;26.70;29.20
10042;DHT22;5061;49.068;12.058;2022-07-17T18:06:14;26.60;29.40
10042;DHT22;5061;49.068;12.058;2022-07-17T18:09:35;26.50;29.50
10042;DHT22;5061;49.068;12.058;2022-07-17T18:12:55;26.30;29.70
10042;DHT22;5061;49.068;12.058;2022-07-17T18:16:16;26.20;29.90
10042;DHT22;5061;49.068;12.058;2022-07-17T18:19:37;26.00;30.00
10042;DHT22;5061;49.068;12.058;2022-07-17T18:22:57;25.90;30.30
10042;DHT22;5061;49.068;12.058;2022-07-17T18:26:18;25.70;30.40
10042;DHT22;5061;49.068;12.058;2022-07-17T18:29:39;25.50;30.50
10042;DHT22;5061;49.068;12.058;2022-07-17T18:32:59;25.40;30.80
10042;DHT22;5061;49.068;12.058;2022-07-17T18:36:20;25.20;31.00
10042;DHT22;5061;49.068;12.058;2022-07-17T18:39:41;25.00;31.30
10042;DHT22;5061;49.068;12.058;2022-07-17T18:43:03;24.80;31.50
10042;DHT22;5061;49.068;12.058;2022-07-17T18:46:23;24.60;31.60
10042;DHT22;5061;49.068;12.058;2022-07-17T18:49:44;24.50;31.80
10042;DHT22;5061;49.068;12.058;2022-07-17T18:53:05;24.30;31.80
10042;DHT22;5061;49.068;12.058;2022-07-17T18:56:26;24.10;31.90
10042;DHT22;5061;49.068;12.058;2022-07-17T18:59:46;24.00;32.00
10042;DHT22;5061;49.068;12.058;2022-07-17T19:03:08;23.80;32.00
10042;DHT22;5061;49.068;12.058;2022-07-17T19:06:29;23.70;32.10
10042;DHT22;5061;49.068;12.058;2022-07-17T19:09:49;23.50;32.20
10042;DHT22;5061;49.068;12.058;2022-07-17T19:13:11;23.40;32.20
10042;DHT22;5061;49.068;12.058;2022-07-17T19:16:31;23.20;32.20
10042;DHT22;5061;49.068;12.058;2022-07-17T19:19:52;23.10;32.40
10042;DHT22;5061;49.068;12.058;2022-07-17T19:23:13;23.00;32.50
10042;DHT22;5061;49.068;12.058;2022-07-17T19:26:33;22.90;32.70
10042;DHT22;5061;49.068;12.058;2022-07-17T19:29:54;22.80;32.70
10042;DHT22;5061;49.068;12.058;2022-07-17T19:33:15;22.70;32.90
10042;DHT22;5061;49.068;12.058;2022-07-17T19:36:36;22.50;32.90
10042;DHT22;5061;49.068;12.058;2022-07-17T19:39:56;22.40;33.10
10042;DHT22;5061;49.068;12.058;2022-07-17T19:43:17;22.30;33.20
10042;DHT22;5061;49.068;12.058;2022-07-17T19:46:37;22.20;33.70
10042;DHT22;5061;49.068;12.058;2022-07-17T19:49:59;22.10;33.10
10042;DHT22;5061;49.068;12.058;2022-07-17T19:53:20;22.00;33.30
10042;DHT22;5061;49.068;12.058;2022-07-17T19:56:40;21.90;33.40
10042;DHT22;5061;49.068;12.058;2022-07-17T20:00:01;21.80;33.50
10042;DHT22;5061;49.068;12.058;2022-07-17T20:03:22;21.70;33.40
10042;DHT22;5061;49.068;12.058;2022-07-17T20:06:42;21.70;33.70
10042;DHT22;5061;49.068;12.058;2022-07-17T20:10:03;21.50;33.70
10042;DHT22;5061;49.068;12.058;2022-07-17T20:13:24;21.40;33.90
10042;DHT22;5061;49.068;12.058;2022-07-17T20:16:45;21.30;34.00
10042;DHT22;5061;49.068;12.058;2022-07-17T20:20:07;21.20;34.20
10042;DHT22;5061;49.068;12.058;2022-07-17T20:23:28;21.10;34.40
10042;DHT22;5061;49.068;12.058;2022-07-17T20:26:48;21.00;34.50
10042;DHT22;5061;49.068;12.058;2022-07-17T20:30:09;21.00;34.80
10042;DHT22;5061;49.068;12.058;2022-07-17T20:33:30;20.90;35.00
10042;DHT22;5061;49.068;12.058;2022-07-17T20:36:51;20.80;35.10
10042;DHT22;5061;49.068;12.058;2022-07-17T20:40:12;20.70;35.20
10042;DHT22;5061;49.068;12.058;2022-07-17T20:43:33;20.60;35.40
10042;DHT22;5061;49.068;12.058;2022-07-17T20:46:57;20.50;35.50
10042;DHT22;5061;49.068;12.058;2022-07-17T20:50:17;20.50;35.60
10042;DHT22;5061;49.068;12.058;2022-07-17T20:53:38;20.40;35.70
10042;DHT22;5061;49.068;12.058;2022-07-17T20:56:59;20.40;35.90
10042;DHT22;5061;49.068;12.058;2022-07-17T21:00:20;20.30;36.00
10042;DHT22;5061;49.068;12.058;2022-07-17T21:03:41;20.20;36.20
10042;DHT22;5061;49.068;12.058;2022-07-17T21:07:01;20.20;36.50
10042;DHT22;5061;49.068;12.058;2022-07-17T21:10:22;20.10;36.40
10042;DHT22;5061;49.068;12.058;2022-07-17T21:13:43;20.00;36.40